SBOSBO SJC / KSJC
Speedbird OnlineSpeedbird Online SJC / KSJC

Norman Y. Mineta San Jose International Airport
01:23 15.8°C

Location San Jose, United States
Latitude: 37.362598
Longitude: -121.929001
Web Airport Website | Wikipedia
Altitude 19 Meter / 62 Feet
Distance 8,644 KM / 5,371 Miles
from London.
Time Zone UTC -7 hours (America/Los_Angeles)
Codes IATA: SJC
ICAO: KSJC
Currency £1 equals USD 1.13
Runways
RunwayLength (m)Surface
111402Asphalt
12L3353Concrete
12R3353Concrete
291402Asphalt
30L3353Concrete
30R3353Concrete
Radio
TypeDescriptionFrequency
APPNORCAL APP120.1
APPNORCAL APP33.82
ATISATIS126.95
CLDCLNC DEL118
CTAFCTAF124
DEPNORCAL DEP121.3
GNDGND121.7
TWRTWR124
Live ATC
METAR KSJC 060753Z AUTO 32005KT 10SM CLR 16/14 A3001 RMK AO2 SLP161 T01610139 402780122
TAF KSJC 060524Z 0606/0706 30009KT P6SM SKC FM060700 32006KT P6SM FEW011 FM061200 VRB03KT 4SM BR BKN006 FM061730 VRB03KT P6SM FEW010 FM062000 33011KT P6SM SKC FM070400 33006KT P6SM SCT010
Weather As Of 06 Oct 2022 01:23
Description Clear sky
Wind 9 km/h from North-West (320°)
Cloud Cover 0%
Precipitation Rain: none, Snow: none
Sunrise 07:07
Sunset 18:43
Rotations During the last 90 days there were
76 flights from LHR
88 flights to LHR


© 2017-2022 Speedbird Online